createdAt,value
2023-04-07T00:00:27.040Z,99.90
2023-04-07T00:02:56.324Z,99.90
2023-04-07T00:09:06.107Z,99.90
2023-04-07T00:11:33.408Z,99.90
2023-04-07T00:14:01.258Z,99.90
2023-04-07T00:16:31.460Z,99.90
2023-04-07T00:18:59.475Z,99.90
2023-04-07T00:21:28.451Z,99.90
2023-04-07T00:23:55.768Z,99.90
2023-04-07T00:26:26.272Z,99.90
2023-04-07T00:29:03.133Z,99.90
2023-04-07T00:31:33.972Z,99.90
2023-04-07T00:34:11.181Z,99.90
2023-04-07T00:36:40.225Z,99.90
2023-04-07T00:39:15.238Z,99.90
2023-04-07T00:41:51.195Z,99.90
2023-04-07T00:44:19.356Z,99.90
2023-04-07T00:46:50.337Z,99.90
2023-04-07T00:49:19.285Z,99.90
2023-04-07T00:51:47.608Z,99.90
2023-04-07T00:54:21.845Z,99.90
2023-04-07T00:56:54.001Z,99.90
2023-04-07T00:59:22.822Z,99.90
2023-04-07T01:02:14.052Z,99.90
2023-04-07T01:05:10.343Z,99.90
2023-04-07T01:08:01.578Z,99.90
2023-04-07T01:10:37.998Z,99.90
2023-04-07T01:14:00.892Z,99.90
2023-04-07T01:16:53.807Z,99.90
2023-04-07T01:20:05.875Z,99.90
2023-04-07T01:22:43.131Z,99.90
2023-04-07T01:25:59.710Z,99.90
2023-04-07T01:28:57.181Z,99.90
2023-04-07T01:31:30.685Z,99.90
2023-04-07T01:34:12.113Z,99.90
2023-04-07T01:36:44.366Z,99.90
2023-04-07T01:39:13.901Z,99.90
2023-04-07T01:41:44.285Z,99.90
2023-04-07T01:44:18.928Z,99.90
2023-04-07T01:46:47.590Z,99.90
2023-04-07T01:49:17.059Z,99.90
2023-04-07T01:51:53.029Z,99.90
2023-04-07T01:54:41.755Z,99.90
2023-04-07T01:57:12.614Z,99.90
2023-04-07T01:59:42.869Z,99.90
2023-04-07T02:02:20.627Z,99.90
2023-04-07T02:04:59.222Z,99.90
2023-04-07T02:07:42.206Z,99.90
2023-04-07T02:10:14.065Z,99.90
2023-04-07T02:12:45.053Z,99.90
2023-04-07T02:15:14.336Z,99.90
2023-04-07T02:17:54.022Z,99.90
2023-04-07T02:20:24.537Z,99.90
2023-04-07T02:22:55.815Z,99.90
2023-04-07T02:25:45.316Z,99.90
2023-04-07T02:28:13.742Z,99.90
2023-04-07T02:30:42.662Z,99.90
2023-04-07T02:33:11.009Z,99.90
2023-04-07T02:35:42.057Z,99.90
2023-04-07T02:38:11.731Z,99.90
2023-04-07T02:40:49.994Z,99.90
2023-04-07T02:43:27.606Z,99.90
2023-04-07T02:45:57.167Z,99.90
2023-04-07T02:48:33.714Z,99.90
2023-04-07T02:51:03.977Z,99.90
2023-04-07T02:53:33.123Z,99.90
2023-04-07T02:56:01.446Z,99.90
2023-04-07T02:58:37.132Z,99.90
2023-04-07T03:01:04.325Z,99.90
2023-04-07T03:03:32.983Z,99.90
2023-04-07T03:06:01.144Z,99.90
2023-04-07T03:08:30.397Z,99.90
2023-04-07T03:10:59.502Z,99.90
2023-04-07T03:13:29.121Z,99.90
2023-04-07T03:16:02.202Z,99.90
2023-04-07T03:18:33.731Z,99.90
2023-04-07T03:21:04.256Z,99.90
2023-04-07T03:23:40.376Z,99.90
2023-04-07T03:26:10.530Z,99.90
2023-04-07T03:28:41.539Z,99.90
2023-04-07T03:31:09.046Z,99.90
2023-04-07T03:33:39.522Z,99.90
2023-04-07T03:36:19.166Z,99.90
2023-04-07T03:38:48.969Z,99.90
2023-04-07T03:41:21.832Z,99.90
2023-04-07T03:43:51.347Z,99.90
2023-04-07T03:46:23.364Z,99.90
2023-04-07T03:48:50.836Z,99.90
2023-04-07T03:51:18.993Z,99.90
2023-04-07T03:53:48.682Z,99.90
2023-04-07T03:56:20.833Z,99.90
2023-04-07T03:58:57.399Z,99.80
2023-04-07T04:01:26.213Z,99.90
2023-04-07T04:03:56.124Z,99.90
2023-04-07T04:06:25.017Z,99.90
2023-04-07T04:09:02.322Z,99.90
2023-04-07T04:11:32.243Z,99.90
2023-04-07T04:14:02.584Z,99.90
2023-04-07T04:16:35.671Z,99.90
2023-04-07T04:19:05.760Z,99.90
2023-04-07T04:21:34.757Z,99.90
2023-04-07T04:24:01.864Z,99.90
2023-04-07T04:26:32.132Z,99.90
2023-04-07T04:29:09.688Z,99.90
2023-04-07T04:31:43.922Z,99.90
2023-04-07T04:34:18.616Z,99.90
2023-04-07T04:36:49.744Z,99.90
2023-04-07T04:39:17.897Z,99.90
2023-04-07T04:41:48.408Z,99.90
2023-04-07T04:44:21.866Z,99.90
2023-04-07T04:46:54.191Z,99.90
2023-04-07T04:49:26.468Z,99.90
2023-04-07T04:51:55.235Z,99.90
2023-04-07T04:54:32.179Z,99.90
2023-04-07T04:57:01.961Z,99.90
2023-04-07T04:59:38.584Z,99.90
2023-04-07T05:02:16.408Z,99.90
2023-04-07T05:04:45.588Z,99.90
2023-04-07T05:07:17.326Z,99.90
2023-04-07T05:09:47.766Z,99.90
2023-04-07T05:12:20.244Z,99.90
2023-04-07T05:14:50.834Z,99.90
2023-04-07T05:17:23.505Z,99.90
2023-04-07T05:19:54.400Z,99.90
2023-04-07T05:22:24.034Z,99.90
2023-04-07T05:24:52.945Z,99.90
2023-04-07T05:27:22.181Z,99.90
2023-04-07T05:29:52.541Z,99.90
2023-04-07T05:32:28.460Z,99.90
2023-04-07T05:34:58.016Z,99.90
2023-04-07T05:37:25.194Z,99.90
2023-04-07T05:39:53.889Z,99.90
2023-04-07T05:42:23.135Z,99.90
2023-04-07T05:44:53.365Z,99.90
2023-04-07T05:47:29.928Z,99.90
2023-04-07T05:49:59.604Z,99.90
2023-04-07T05:52:27.831Z,99.90
2023-04-07T05:54:56.867Z,99.90
2023-04-07T05:57:29.076Z,99.90
2023-04-07T05:59:59.585Z,99.90
2023-04-07T06:02:28.353Z,99.90
2023-04-07T06:04:56.847Z,99.60
2023-04-07T06:07:26.320Z,99.20
2023-04-07T06:09:56.005Z,99.10
2023-04-07T06:12:32.146Z,98.40
2023-04-07T06:15:01.855Z,98.00
2023-04-07T06:17:32.409Z,97.90
2023-04-07T06:20:00.565Z,97.80
2023-04-07T06:22:30.324Z,96.60
2023-04-07T06:25:00.266Z,95.80
2023-04-07T06:27:29.081Z,94.90
2023-04-07T06:29:59.645Z,94.30
2023-04-07T06:32:28.637Z,93.90
2023-04-07T06:34:58.745Z,93.20
2023-04-07T06:37:28.327Z,91.90
2023-04-07T06:39:59.114Z,90.50
2023-04-07T06:42:31.070Z,89.10
2023-04-07T06:45:01.318Z,90.20
2023-04-07T06:47:32.408Z,88.80
2023-04-07T06:50:02.530Z,83.20
2023-04-07T06:52:30.162Z,81.70
2023-04-07T06:55:00.007Z,84.10
2023-04-07T06:57:38.644Z,76.60
2023-04-07T07:00:12.183Z,74.20
2023-04-07T07:02:48.279Z,72.60
2023-04-07T07:05:22.122Z,73.30
2023-04-07T07:07:49.794Z,75.00
2023-04-07T07:10:19.839Z,76.10
2023-04-07T07:12:58.898Z,76.10
2023-04-07T07:15:28.227Z,76.10
2023-04-07T07:17:57.069Z,78.30
2023-04-07T07:20:29.154Z,74.00
2023-04-07T07:23:01.954Z,66.30
2023-04-07T07:25:41.451Z,60.00
2023-04-07T07:28:13.479Z,65.50
2023-04-07T07:30:42.158Z,69.90
2023-04-07T07:33:12.314Z,73.10
2023-04-07T07:35:42.531Z,75.30
2023-04-07T07:38:22.165Z,77.50
2023-04-07T07:40:50.576Z,80.40
2023-04-07T07:43:19.324Z,79.60
2023-04-07T07:45:49.336Z,79.40
2023-04-07T07:48:17.663Z,80.10
2023-04-07T07:50:47.974Z,81.10
2023-04-07T07:53:15.748Z,82.50
2023-04-07T07:55:44.289Z,80.70
2023-04-07T07:58:13.169Z,80.60
2023-04-07T08:00:43.034Z,82.10
2023-04-07T08:03:11.975Z,83.30
2023-04-07T08:05:43.575Z,82.50
2023-04-07T08:08:11.949Z,97.50
2023-04-07T08:10:45.248Z,97.10
2023-04-07T08:13:13.693Z,93.80
2023-04-07T08:15:42.360Z,92.40
2023-04-07T08:18:09.590Z,80.00
2023-04-07T08:20:39.573Z,78.10
2023-04-07T08:23:07.735Z,72.80
2023-04-07T08:25:37.389Z,67.00
2023-04-07T08:28:15.248Z,68.00
2023-04-07T08:30:43.856Z,62.10
2023-04-07T08:33:24.067Z,65.00
2023-04-07T08:36:01.596Z,61.60
2023-04-07T08:38:32.192Z,61.50
2023-04-07T08:41:13.438Z,59.80
2023-04-07T08:43:51.089Z,62.20
2023-04-07T08:46:22.775Z,58.50
2023-04-07T08:48:53.102Z,55.70
2023-04-07T08:51:29.886Z,53.70
2023-04-07T08:54:12.086Z,52.20
2023-04-07T08:56:47.041Z,55.00
2023-04-07T08:59:18.139Z,54.20
2023-04-07T09:01:48.050Z,54.80
2023-04-07T09:04:19.086Z,56.20
2023-04-07T09:06:47.489Z,57.20
2023-04-07T09:09:15.867Z,57.40
2023-04-07T09:11:46.189Z,55.20
2023-04-07T09:14:15.635Z,52.80
2023-04-07T09:16:42.857Z,55.90
2023-04-07T09:19:13.278Z,54.30
2023-04-07T09:21:54.128Z,52.90
2023-04-07T09:24:37.838Z,54.50
2023-04-07T09:27:23.991Z,56.00
2023-04-07T09:29:51.241Z,57.50
2023-04-07T09:32:47.018Z,55.00
2023-04-07T09:35:14.350Z,54.70
2023-04-07T09:37:52.461Z,53.60
2023-04-07T09:40:29.388Z,51.50
2023-04-07T09:42:59.243Z,49.50
2023-04-07T09:45:36.130Z,50.80
2023-04-07T09:48:20.596Z,57.80
2023-04-07T09:50:50.691Z,53.60
2023-04-07T09:53:21.634Z,53.70
2023-04-07T09:55:57.484Z,51.20
2023-04-07T09:58:39.645Z,54.40
2023-04-07T10:01:13.396Z,52.50
2023-04-07T10:03:48.377Z,51.00
2023-04-07T10:06:19.371Z,50.30
2023-04-07T10:08:48.439Z,54.40
2023-04-07T10:11:18.625Z,55.00
2023-04-07T10:13:47.922Z,55.80
2023-04-07T10:16:17.613Z,61.10
2023-04-07T10:18:44.966Z,60.30
2023-04-07T10:21:19.413Z,60.40
2023-04-07T10:24:31.819Z,64.10
2023-04-07T10:27:05.185Z,64.00
2023-04-07T10:29:41.519Z,67.80
2023-04-07T10:32:10.140Z,60.10
2023-04-07T10:34:59.820Z,59.40
2023-04-07T10:37:36.378Z,61.10
2023-04-07T10:40:29.091Z,61.90
2023-04-07T10:42:59.641Z,57.30
2023-04-07T10:45:52.912Z,53.00
2023-04-07T10:48:30.599Z,54.00
2023-04-07T10:51:18.305Z,53.90
2023-04-07T10:54:21.443Z,51.80
2023-04-07T10:57:29.269Z,51.70
2023-04-07T11:00:12.667Z,53.70
2023-04-07T11:02:41.952Z,52.50
2023-04-07T11:05:31.981Z,49.80
2023-04-07T11:08:04.766Z,51.90
2023-04-07T11:10:35.119Z,56.90
2023-04-07T11:13:07.192Z,50.20
2023-04-07T11:15:39.384Z,49.60
2023-04-07T11:18:18.761Z,50.40
2023-04-07T11:21:01.034Z,50.90
2023-04-07T11:23:32.304Z,52.00
2023-04-07T11:26:13.243Z,53.30
2023-04-07T11:28:52.997Z,49.90
2023-04-07T11:31:29.648Z,51.00
2023-04-07T11:34:10.605Z,53.70
2023-04-07T11:36:50.060Z,52.30
2023-04-07T11:39:22.441Z,53.20
2023-04-07T11:41:59.060Z,51.80
2023-04-07T11:44:38.963Z,52.00
2023-04-07T11:47:07.272Z,52.50
2023-04-07T11:49:35.760Z,50.10
2023-04-07T11:52:08.680Z,51.30
2023-04-07T11:54:44.105Z,53.80
2023-04-07T11:57:14.399Z,50.70
2023-04-07T11:59:42.199Z,49.50
2023-04-07T12:02:11.352Z,52.50
2023-04-07T12:04:40.981Z,51.80
2023-04-07T12:07:12.963Z,54.10
2023-04-07T12:09:41.153Z,50.20
2023-04-07T12:12:11.811Z,51.00
2023-04-07T12:14:40.581Z,47.40
2023-04-07T12:17:29.538Z,47.40
2023-04-07T12:19:58.284Z,48.40
2023-04-07T12:22:27.404Z,53.20
2023-04-07T12:24:57.785Z,49.40
2023-04-07T12:27:41.707Z,51.60
2023-04-07T12:30:13.317Z,48.80
2023-04-07T12:32:44.006Z,51.10
2023-04-07T12:35:21.877Z,51.70
2023-04-07T12:37:55.607Z,50.70
2023-04-07T12:40:26.566Z,51.00
2023-04-07T12:43:01.159Z,48.80
2023-04-07T12:45:35.914Z,49.30
2023-04-07T12:48:06.946Z,50.40
2023-04-07T12:50:36.375Z,51.50
2023-04-07T12:53:13.713Z,47.50
2023-04-07T12:55:50.460Z,48.00
2023-04-07T12:58:19.884Z,49.60
2023-04-07T13:00:49.029Z,48.90
2023-04-07T13:03:17.895Z,48.30
2023-04-07T13:05:49.464Z,48.80
2023-04-07T13:08:18.221Z,48.50
2023-04-07T13:10:48.805Z,50.40
2023-04-07T13:13:19.501Z,49.90
2023-04-07T13:15:55.287Z,48.20
2023-04-07T13:18:23.880Z,49.60
2023-04-07T13:21:14.324Z,52.20
2023-04-07T13:23:53.911Z,54.50
2023-04-07T13:26:30.450Z,55.50
2023-04-07T13:29:01.787Z,57.60
2023-04-07T13:31:30.846Z,57.00
2023-04-07T13:34:01.406Z,56.80
2023-04-07T13:36:32.486Z,55.70
2023-04-07T13:39:00.063Z,55.70
2023-04-07T13:41:30.101Z,55.50
2023-04-07T13:43:58.696Z,56.00
2023-04-07T13:46:31.052Z,56.80
2023-04-07T13:49:01.675Z,56.30
2023-04-07T13:51:31.210Z,57.10
2023-04-07T13:54:00.399Z,57.70
2023-04-07T13:56:27.466Z,57.20
2023-04-07T13:58:55.750Z,56.30
2023-04-07T14:01:23.560Z,57.00
2023-04-07T14:03:53.216Z,57.50
2023-04-07T14:06:32.292Z,57.20
2023-04-07T14:09:01.523Z,57.50
2023-04-07T14:11:30.671Z,57.30
2023-04-07T14:13:58.607Z,57.70
2023-04-07T14:16:26.841Z,58.60
2023-04-07T14:18:58.568Z,56.50
2023-04-07T14:21:31.612Z,57.20
2023-04-07T14:24:00.602Z,56.30
2023-04-07T14:26:31.122Z,57.00
2023-04-07T14:28:59.634Z,57.10
2023-04-07T14:31:29.127Z,56.80
2023-04-07T14:34:06.824Z,56.80
2023-04-07T14:36:35.366Z,57.00
2023-04-07T14:39:05.526Z,56.80
2023-04-07T14:41:42.267Z,57.20
2023-04-07T14:44:10.720Z,56.60
2023-04-07T14:46:40.155Z,57.00
2023-04-07T14:49:09.284Z,56.70
2023-04-07T14:51:40.409Z,55.90
2023-04-07T14:54:08.308Z,56.60
2023-04-07T14:56:44.969Z,57.20
2023-04-07T14:59:23.399Z,57.70
2023-04-07T15:01:59.862Z,57.80
2023-04-07T15:04:28.666Z,57.80
2023-04-07T15:06:59.449Z,57.10
2023-04-07T15:09:28.644Z,56.90
2023-04-07T15:11:57.253Z,57.90
2023-04-07T15:14:25.934Z,58.40
2023-04-07T15:16:54.962Z,57.90
2023-04-07T15:19:25.196Z,57.90
2023-04-07T15:21:56.631Z,58.40
2023-04-07T15:24:27.922Z,58.20
2023-04-07T15:26:56.510Z,58.70
2023-04-07T15:29:26.615Z,59.10
2023-04-07T15:31:56.436Z,59.30
2023-04-07T15:34:26.977Z,61.00
2023-04-07T15:37:04.151Z,59.80
2023-04-07T15:39:32.107Z,60.70
2023-04-07T15:42:04.271Z,60.80
2023-04-07T15:44:40.907Z,62.40
2023-04-07T15:47:09.090Z,63.10
2023-04-07T15:49:39.294Z,64.00
2023-04-07T15:52:10.177Z,65.70
2023-04-07T15:54:37.233Z,65.70
2023-04-07T15:57:13.409Z,66.10
2023-04-07T15:59:41.841Z,67.40
2023-04-07T16:02:12.969Z,67.80
2023-04-07T16:04:43.639Z,68.10
2023-04-07T16:07:10.930Z,68.40
2023-04-07T16:09:39.271Z,69.20
2023-04-07T16:12:08.096Z,69.50
2023-04-07T16:14:44.261Z,70.90
2023-04-07T16:17:13.542Z,71.30
2023-04-07T16:19:42.871Z,71.40
2023-04-07T16:22:11.150Z,72.00
2023-04-07T16:24:42.094Z,72.10
2023-04-07T16:27:10.566Z,73.00
2023-04-07T16:29:41.339Z,73.50
2023-04-07T16:32:12.452Z,73.00
2023-04-07T16:34:42.021Z,73.30
2023-04-07T16:37:11.994Z,72.70
2023-04-07T16:39:40.467Z,72.90
2023-04-07T16:42:14.732Z,73.10
2023-04-07T16:44:50.819Z,73.60
2023-04-07T16:47:21.956Z,73.60
2023-04-07T16:49:49.252Z,74.00
2023-04-07T16:52:26.899Z,74.20
2023-04-07T16:54:56.851Z,75.00
2023-04-07T16:57:23.897Z,75.00
2023-04-07T17:00:00.657Z,75.30
2023-04-07T17:02:30.009Z,75.60
2023-04-07T17:05:00.178Z,76.20
2023-04-07T17:07:27.439Z,75.90
2023-04-07T17:09:54.887Z,75.40
2023-04-07T17:12:26.197Z,75.90
2023-04-07T17:14:56.394Z,76.10
2023-04-07T17:17:24.920Z,76.50
2023-04-07T17:19:54.226Z,76.60
2023-04-07T17:22:24.156Z,77.00
2023-04-07T17:25:00.592Z,77.40
2023-04-07T17:27:30.364Z,78.50
2023-04-07T17:29:59.120Z,78.90
2023-04-07T17:32:28.346Z,79.20
2023-04-07T17:34:56.709Z,78.50
2023-04-07T17:37:25.085Z,79.10
2023-04-07T17:39:52.063Z,79.00
2023-04-07T17:42:20.585Z,79.50
2023-04-07T17:44:53.089Z,77.30
2023-04-07T17:47:21.515Z,79.40
2023-04-07T17:49:52.160Z,80.10
2023-04-07T17:52:20.604Z,80.00
2023-04-07T17:54:50.752Z,80.30
2023-04-07T17:57:21.080Z,81.00
2023-04-07T17:59:52.894Z,79.90
2023-04-07T18:02:21.809Z,81.60
2023-04-07T18:04:53.756Z,80.20
2023-04-07T18:07:30.278Z,81.20
2023-04-07T18:09:59.305Z,82.10
2023-04-07T18:12:26.316Z,75.30
2023-04-07T18:14:54.649Z,82.60
2023-04-07T18:17:24.586Z,84.60
2023-04-07T18:19:52.832Z,89.40
2023-04-07T18:22:22.707Z,88.00
2023-04-07T18:24:56.303Z,83.00
2023-04-07T18:27:27.739Z,86.70
2023-04-07T18:29:56.924Z,90.60
2023-04-07T18:32:25.998Z,91.00
2023-04-07T18:35:06.943Z,85.10
2023-04-07T18:37:35.550Z,90.30
2023-04-07T18:40:06.156Z,85.30
2023-04-07T18:45:07.154Z,90.40
2023-04-07T18:47:36.493Z,95.00
2023-04-07T18:50:05.344Z,96.10
2023-04-07T18:52:35.806Z,95.60
2023-04-07T18:55:09.786Z,94.80
2023-04-07T18:57:49.394Z,94.00
2023-04-07T19:00:16.671Z,93.40
2023-04-07T19:02:44.984Z,92.90
2023-04-07T19:05:16.349Z,92.50
2023-04-07T19:07:47.596Z,92.30
2023-04-07T19:10:19.066Z,92.20
2023-04-07T19:12:49.698Z,92.00
2023-04-07T19:15:19.510Z,92.00
2023-04-07T19:17:53.250Z,91.90
2023-04-07T19:20:23.946Z,92.20
2023-04-07T19:22:54.391Z,92.10
2023-04-07T19:25:25.660Z,91.90
2023-04-07T19:27:54.172Z,92.10
2023-04-07T19:30:21.330Z,92.20
2023-04-07T19:32:50.428Z,92.10
2023-04-07T19:35:21.388Z,92.10
2023-04-07T19:37:52.423Z,92.50
2023-04-07T19:40:20.922Z,96.50
2023-04-07T19:42:48.151Z,93.70
2023-04-07T19:45:17.046Z,93.90
2023-04-07T19:47:45.964Z,93.90
2023-04-07T19:50:16.330Z,93.40
2023-04-07T19:52:46.702Z,93.60
2023-04-07T19:55:17.685Z,93.70
2023-04-07T19:57:47.350Z,94.10
2023-04-07T20:00:17.077Z,93.70
2023-04-07T20:02:46.881Z,93.70
2023-04-07T20:05:16.623Z,93.70
2023-04-07T20:07:46.436Z,93.60
2023-04-07T20:10:15.168Z,93.70
2023-04-07T20:12:44.349Z,93.80
2023-04-07T20:15:14.881Z,94.10
2023-04-07T20:17:41.994Z,94.10
2023-04-07T20:20:12.082Z,94.20
2023-04-07T20:22:40.635Z,94.20
2023-04-07T20:25:11.848Z,94.20
2023-04-07T20:27:40.394Z,94.20
2023-04-07T20:30:17.812Z,94.50
2023-04-07T20:32:47.672Z,94.50
2023-04-07T20:35:18.774Z,94.70
2023-04-07T20:37:55.211Z,94.70
2023-04-07T20:40:23.430Z,95.10
2023-04-07T20:42:53.136Z,94.90
2023-04-07T20:45:24.646Z,94.90
2023-04-07T20:47:55.730Z,95.00
2023-04-07T20:50:24.754Z,95.30
2023-04-07T20:52:58.527Z,96.80
2023-04-07T20:55:29.376Z,95.60
2023-04-07T20:57:58.490Z,96.90
2023-04-07T21:00:28.483Z,98.00
2023-04-07T21:02:57.608Z,98.40
2023-04-07T21:05:34.388Z,99.80
2023-04-07T21:08:03.684Z,99.80
2023-04-07T21:10:32.211Z,99.00
2023-04-07T21:13:00.649Z,96.60
2023-04-07T21:15:30.869Z,96.90
2023-04-07T21:18:01.646Z,97.80
2023-04-07T21:20:32.475Z,98.20
2023-04-07T21:23:02.249Z,99.80
2023-04-07T21:25:32.446Z,98.50
2023-04-07T21:28:01.316Z,98.90
2023-04-07T21:30:29.475Z,99.20
2023-04-07T21:32:58.139Z,99.30
2023-04-07T21:35:31.721Z,99.80
2023-04-07T21:37:59.347Z,99.40
2023-04-07T21:40:27.889Z,99.90
2023-04-07T21:42:57.198Z,99.90
2023-04-07T21:45:28.502Z,99.90
2023-04-07T21:48:04.771Z,99.90
2023-04-07T21:50:36.212Z,99.90
2023-04-07T21:53:04.828Z,99.90
2023-04-07T21:55:36.007Z,99.00
2023-04-07T21:58:06.884Z,99.90
2023-04-07T22:00:36.964Z,99.90
2023-04-07T22:03:14.549Z,99.90
2023-04-07T22:05:44.772Z,99.90
2023-04-07T22:08:13.136Z,99.90
2023-04-07T22:10:42.112Z,99.90
2023-04-07T22:13:11.654Z,99.90
2023-04-07T22:15:41.250Z,99.90
2023-04-07T22:18:10.298Z,99.90
2023-04-07T22:20:42.029Z,99.90
2023-04-07T22:23:09.450Z,99.90
2023-04-07T22:25:37.669Z,99.90
2023-04-07T22:28:09.286Z,99.90
2023-04-07T22:30:47.917Z,99.90
2023-04-07T22:33:17.787Z,99.90
2023-04-07T22:35:47.148Z,99.70
2023-04-07T22:38:17.960Z,99.30
2023-04-07T22:40:49.561Z,99.80
2023-04-07T22:43:21.051Z,99.90
2023-04-07T22:45:51.522Z,99.40
2023-04-07T22:48:20.893Z,99.70
2023-04-07T22:50:51.246Z,99.20
2023-04-07T22:53:21.045Z,98.50
2023-04-07T22:55:49.712Z,98.80
2023-04-07T22:58:16.998Z,98.40
2023-04-07T23:00:47.806Z,99.10
2023-04-07T23:03:16.078Z,99.90
2023-04-07T23:05:46.957Z,99.10
2023-04-07T23:08:17.121Z,98.30
2023-04-07T23:10:46.182Z,98.10
2023-04-07T23:13:24.647Z,98.10
2023-04-07T23:15:54.022Z,98.00
2023-04-07T23:18:22.044Z,98.00
2023-04-07T23:20:53.820Z,99.10
2023-04-07T23:23:22.639Z,98.50
2023-04-07T23:25:51.336Z,98.20
2023-04-07T23:28:19.850Z,97.90
2023-04-07T23:30:49.084Z,97.90
2023-04-07T23:33:18.073Z,97.90
2023-04-07T23:35:47.886Z,97.70
2023-04-07T23:38:17.438Z,97.80
2023-04-07T23:40:46.959Z,98.10
2023-04-07T23:43:18.557Z,97.90
2023-04-07T23:45:47.079Z,97.90
2023-04-07T23:48:17.397Z,98.00
2023-04-07T23:50:50.234Z,98.10
2023-04-07T23:53:19.731Z,98.30
2023-04-07T23:55:46.954Z,99.50
2023-04-07T23:58:15.642Z,98.50
